createdAt,value
2018-11-28T00:03:05.686Z,2.10
2018-11-28T00:07:58.996Z,2.10
2018-11-28T00:12:52.494Z,2.00
2018-11-28T00:17:45.768Z,2.10
2018-11-28T00:22:39.103Z,2.10
2018-11-28T00:27:32.422Z,2.10
2018-11-28T00:32:26.768Z,2.10
2018-11-28T00:37:20.048Z,2.20
2018-11-28T00:42:13.367Z,2.20
2018-11-28T00:47:06.673Z,2.20
2018-11-28T00:51:59.949Z,2.20
2018-11-28T00:56:53.236Z,2.20
2018-11-28T01:01:46.464Z,2.20
2018-11-28T01:06:39.780Z,2.20
2018-11-28T01:11:33.047Z,2.20
2018-11-28T01:16:26.395Z,2.20
2018-11-28T01:21:19.643Z,2.20
2018-11-28T01:26:12.940Z,2.20
2018-11-28T01:31:06.673Z,2.20
2018-11-28T01:35:59.956Z,2.10
2018-11-28T01:40:53.595Z,2.20
2018-11-28T01:45:46.857Z,2.30
2018-11-28T01:50:40.154Z,2.20
2018-11-28T01:55:33.439Z,2.30
2018-11-28T02:00:27.143Z,2.30
2018-11-28T02:05:20.458Z,2.30
2018-11-28T02:10:15.505Z,2.20
2018-11-28T02:15:11.137Z,2.20
2018-11-28T02:20:07.771Z,2.20
2018-11-28T02:25:01.694Z,2.20
2018-11-28T02:29:54.971Z,2.30
2018-11-28T02:34:48.277Z,2.30
2018-11-28T02:39:41.562Z,2.40
2018-11-28T02:44:34.838Z,2.40
2018-11-28T02:49:28.127Z,2.40
2018-11-28T02:54:22.083Z,2.50
2018-11-28T02:59:15.309Z,2.50
2018-11-28T03:04:08.606Z,2.50
2018-11-28T03:09:01.903Z,2.50
2018-11-28T03:13:55.168Z,2.50
2018-11-28T03:18:48.458Z,2.60
2018-11-28T03:23:41.767Z,2.60
2018-11-28T03:28:35.065Z,2.70
2018-11-28T03:33:28.418Z,2.70
2018-11-28T03:38:21.723Z,2.70
2018-11-28T03:43:15.019Z,2.70
2018-11-28T03:48:08.281Z,2.70
2018-11-28T03:53:01.564Z,2.80
2018-11-28T03:57:54.827Z,2.80
2018-11-28T04:02:49.765Z,2.80
2018-11-28T04:07:43.057Z,2.80
2018-11-28T04:12:37.568Z,2.80
2018-11-28T04:17:30.863Z,2.80
2018-11-28T04:22:24.125Z,2.80
2018-11-28T04:27:17.401Z,2.80
2018-11-28T04:32:10.693Z,2.90
2018-11-28T04:37:03.962Z,2.90
2018-11-28T04:43:00.319Z,3.00
2018-11-28T04:47:55.079Z,3.00
2018-11-28T04:52:48.416Z,3.10
2018-11-28T04:57:41.778Z,3.10
2018-11-28T05:02:35.120Z,3.10
2018-11-28T05:07:29.603Z,3.10
2018-11-28T05:12:22.970Z,3.00
2018-11-28T05:17:16.337Z,3.00
2018-11-28T05:22:09.613Z,3.00
2018-11-28T05:27:03.011Z,3.10
2018-11-28T05:31:56.307Z,3.10
2018-11-28T05:36:49.559Z,3.20
2018-11-28T05:41:43.918Z,3.20
2018-11-28T05:46:37.216Z,3.30
2018-11-28T05:51:31.595Z,3.30
2018-11-28T05:56:24.838Z,3.40
2018-11-28T06:01:18.709Z,3.50
2018-11-28T06:06:12.024Z,3.50
2018-11-28T06:11:05.936Z,3.60
2018-11-28T06:15:59.187Z,3.60
2018-11-28T06:20:52.551Z,3.60
2018-11-28T06:25:45.850Z,3.60
2018-11-28T06:30:39.081Z,3.60
2018-11-28T06:35:32.372Z,3.60
2018-11-28T06:40:25.631Z,3.60
2018-11-28T06:45:20.877Z,3.60
2018-11-28T06:50:15.703Z,3.60
2018-11-28T06:55:12.072Z,3.60
2018-11-28T07:00:11.264Z,3.60
2018-11-28T07:05:05.463Z,3.50
2018-11-28T07:09:58.859Z,3.50
2018-11-28T07:14:52.103Z,3.50
2018-11-28T07:19:45.373Z,3.60
2018-11-28T07:24:38.636Z,3.70
2018-11-28T07:29:31.883Z,3.70
2018-11-28T07:34:25.184Z,3.70
2018-11-28T07:39:18.441Z,3.70
2018-11-28T07:44:11.693Z,3.80
2018-11-28T07:49:05.005Z,3.90
2018-11-28T07:53:58.343Z,3.90
2018-11-28T07:58:51.638Z,4.00
2018-11-28T08:03:44.963Z,4.10
2018-11-28T08:08:38.254Z,4.10
2018-11-28T08:13:31.562Z,4.20
2018-11-28T08:18:24.902Z,4.30
2018-11-28T08:23:18.178Z,4.30
2018-11-28T08:28:11.455Z,4.30
2018-11-28T08:33:04.907Z,4.40
2018-11-28T08:37:58.156Z,4.40
2018-11-28T08:42:51.784Z,4.40
2018-11-28T08:47:46.720Z,4.50
2018-11-28T08:52:40.025Z,4.50
2018-11-28T08:57:33.324Z,4.60
2018-11-28T09:02:26.605Z,4.70
2018-11-28T09:07:19.909Z,4.70
2018-11-28T09:12:13.170Z,4.80
2018-11-28T09:17:06.777Z,4.80
2018-11-28T09:22:00.097Z,4.80
2018-11-28T09:26:53.398Z,4.90
2018-11-28T09:31:46.710Z,4.90
2018-11-28T09:36:39.942Z,5.00
2018-11-28T09:41:33.219Z,5.00
2018-11-28T09:46:26.493Z,5.10
2018-11-28T09:51:19.807Z,5.10
2018-11-28T09:56:13.161Z,5.10
2018-11-28T10:01:06.516Z,5.10
2018-11-28T10:05:59.787Z,5.20
2018-11-28T10:10:53.055Z,5.10
2018-11-28T10:15:46.432Z,5.20
2018-11-28T10:20:39.677Z,5.20
2018-11-28T10:25:33.004Z,5.30
2018-11-28T10:30:29.235Z,5.40
2018-11-28T10:35:22.434Z,5.50
2018-11-28T10:40:17.814Z,5.60
2018-11-28T10:45:13.725Z,5.60
2018-11-28T10:50:11.178Z,5.60
2018-11-28T10:55:05.773Z,5.70
2018-11-28T10:59:59.136Z,5.80
2018-11-28T11:04:58.275Z,5.80
2018-11-28T11:09:57.241Z,6.00
2018-11-28T11:14:50.564Z,6.00
2018-11-28T11:19:43.903Z,6.00
2018-11-28T11:24:37.255Z,6.00
2018-11-28T11:29:30.552Z,6.10
2018-11-28T11:34:23.835Z,6.10
2018-11-28T11:39:17.142Z,6.20
2018-11-28T11:44:10.498Z,6.00
2018-11-28T11:49:04.200Z,6.00
2018-11-28T11:53:57.555Z,6.00
2018-11-28T11:58:50.895Z,6.20
2018-11-28T12:03:44.244Z,6.30
2018-11-28T12:08:37.559Z,6.50
2018-11-28T12:13:30.895Z,6.60
2018-11-28T12:18:24.235Z,6.60
2018-11-28T12:23:17.610Z,6.60
2018-11-28T12:28:11.012Z,6.60
2018-11-28T12:33:04.581Z,6.60
2018-11-28T12:37:59.903Z,6.70
2018-11-28T12:42:53.400Z,6.60
2018-11-28T12:47:47.615Z,6.80
2018-11-28T12:52:40.962Z,6.70
2018-11-28T12:57:34.257Z,6.70
2018-11-28T13:02:27.511Z,6.60
2018-11-28T13:07:20.741Z,6.70
2018-11-28T13:12:14.129Z,6.50
2018-11-28T13:17:07.482Z,6.50
2018-11-28T13:22:00.781Z,6.60
2018-11-28T13:26:54.058Z,6.60
2018-11-28T13:31:47.393Z,6.60
2018-11-28T13:36:40.674Z,6.70
2018-11-28T13:41:33.948Z,6.80
2018-11-28T13:46:27.295Z,6.80
2018-11-28T13:51:20.557Z,6.80
2018-11-28T13:56:58.153Z,6.70
2018-11-28T14:01:08.375Z,6.80
2018-11-28T14:06:01.641Z,6.70
2018-11-28T14:10:55.453Z,6.80
2018-11-28T14:15:48.718Z,6.70
2018-11-28T14:20:42.107Z,6.80
2018-11-28T14:25:35.619Z,6.80
2018-11-28T14:30:28.912Z,6.80
2018-11-28T14:35:22.982Z,6.70
2018-11-28T14:40:19.603Z,6.80
2018-11-28T14:45:15.769Z,6.80
2018-11-28T14:50:15.547Z,6.60
2018-11-28T14:55:13.117Z,6.50
2018-11-28T15:00:19.748Z,6.50
2018-11-28T15:05:36.294Z,6.50
2018-11-28T15:11:07.019Z,6.50
2018-11-28T15:16:00.826Z,6.40
2018-11-28T15:20:54.134Z,6.40
2018-11-28T15:25:47.491Z,6.30
2018-11-28T15:30:40.838Z,6.40
2018-11-28T15:35:34.173Z,6.40
2018-11-28T15:40:27.475Z,6.30
2018-11-28T15:45:20.789Z,6.30
2018-11-28T15:50:14.167Z,6.30
2018-11-28T15:55:10.284Z,6.20
2018-11-28T16:00:04.608Z,6.00
2018-11-28T16:04:57.962Z,5.80
2018-11-28T16:09:56.834Z,5.70
2018-11-28T16:14:50.094Z,5.70
2018-11-28T16:19:43.393Z,5.60
2018-11-28T16:24:36.794Z,5.50
2018-11-28T16:29:30.109Z,5.50
2018-11-28T16:34:23.355Z,5.40
2018-11-28T16:39:16.660Z,5.30
2018-11-28T16:44:10.056Z,5.30
2018-11-28T16:49:03.460Z,5.30
2018-11-28T16:53:57.194Z,5.20
2018-11-28T16:58:50.496Z,5.40
2018-11-28T17:03:43.999Z,5.30
2018-11-28T17:08:37.290Z,5.30
2018-11-28T17:13:30.567Z,5.30
2018-11-28T17:18:23.794Z,5.30
2018-11-28T17:23:17.089Z,5.30
2018-11-28T17:28:10.987Z,5.30
2018-11-28T17:33:05.110Z,5.30
2018-11-28T17:37:58.363Z,5.30
2018-11-28T17:42:53.642Z,5.20
2018-11-28T17:47:46.982Z,5.30
2018-11-28T17:52:40.724Z,5.20
2018-11-28T17:57:34.005Z,5.30
2018-11-28T18:02:27.302Z,5.20
2018-11-28T18:07:20.550Z,5.20
2018-11-28T18:12:13.793Z,5.30
2018-11-28T18:17:07.250Z,5.30
2018-11-28T18:22:00.543Z,5.30
2018-11-28T18:26:53.842Z,5.40
2018-11-28T18:31:47.488Z,5.30
2018-11-28T18:36:40.744Z,5.30
2018-11-28T18:41:34.036Z,5.20
2018-11-28T18:46:27.325Z,5.30
2018-11-28T18:51:20.624Z,5.30
2018-11-28T18:56:13.907Z,5.40
2018-11-28T19:01:07.207Z,5.40
2018-11-28T19:06:00.527Z,5.50
2018-11-28T19:10:53.869Z,5.50
2018-11-28T19:15:48.227Z,5.60
2018-11-28T19:20:41.511Z,5.60
2018-11-28T19:25:34.796Z,5.60
2018-11-28T19:30:35.436Z,5.70
2018-11-28T19:35:28.945Z,5.70
2018-11-28T19:40:35.636Z,5.80
2018-11-28T19:45:29.013Z,5.80
2018-11-28T19:50:26.018Z,5.80
2018-11-28T19:55:19.382Z,5.80
2018-11-28T20:00:17.688Z,5.90
2018-11-28T20:05:11.120Z,5.80
2018-11-28T20:10:08.019Z,5.90
2018-11-28T20:15:01.257Z,5.90
2018-11-28T20:19:55.274Z,5.90
2018-11-28T20:24:48.541Z,5.90
2018-11-28T20:29:41.891Z,5.90
2018-11-28T20:34:35.176Z,5.80
2018-11-28T20:39:28.500Z,5.90
2018-11-28T20:44:21.785Z,5.80
2018-11-28T20:49:15.037Z,5.80
2018-11-28T20:54:08.341Z,5.90
2018-11-28T20:59:01.687Z,6.00
2018-11-28T21:03:54.990Z,6.00
2018-11-28T21:08:48.309Z,6.00
2018-11-28T21:13:41.593Z,6.10
2018-11-28T21:18:34.869Z,6.10
2018-11-28T21:23:28.177Z,6.10
2018-11-28T21:28:21.787Z,6.00
2018-11-28T21:33:15.325Z,6.20
2018-11-28T21:38:09.071Z,6.20
2018-11-28T21:43:02.403Z,6.20
2018-11-28T21:47:57.179Z,6.30
2018-11-28T21:52:50.521Z,6.30
2018-11-28T21:57:43.868Z,6.40
2018-11-28T22:02:37.148Z,6.40
2018-11-28T22:07:30.399Z,6.40
2018-11-28T22:12:23.708Z,6.40
2018-11-28T22:17:17.040Z,6.40
2018-11-28T22:22:10.318Z,6.50
2018-11-28T22:27:03.634Z,6.50
2018-11-28T22:31:56.985Z,6.50
2018-11-28T22:36:50.286Z,6.50
2018-11-28T22:41:43.572Z,6.60
2018-11-28T22:46:37.145Z,6.60
2018-11-28T22:51:30.467Z,6.60
2018-11-28T22:56:23.762Z,6.70
2018-11-28T23:01:21.695Z,6.70
2018-11-28T23:06:14.961Z,6.60
2018-11-28T23:11:08.184Z,6.70
2018-11-28T23:16:01.616Z,6.70
2018-11-28T23:20:54.953Z,6.70
2018-11-28T23:25:48.306Z,6.70
2018-11-28T23:30:41.600Z,6.70
2018-11-28T23:35:34.966Z,6.80
2018-11-28T23:40:28.212Z,6.80
2018-11-28T23:45:21.818Z,6.80
2018-11-28T23:50:17.277Z,6.80
2018-11-28T23:55:18.158Z,6.80
